Prompton, Pennsylvania
Current Conditions -  °F | °C
As of 6:54 AM on Friday 28 Nov 2014 (Local Time) from KAVP Reporting Station
Scattered Clouds Scattered Clouds  
Wind Chill: -8°   Ceiling: Unl
Heat Index: -3°   Visibility: 9mi
Dew Point: -6°   Wind: 9mph
Humidity: 81%   Direction: 340°NNW
Pressure: 30.14"   Gusts: NA
Location:  41.58°N, 75.33°W
Report Text: KAVP 281154Z 34008KT 9SM SCT013 M03/M06 A3014 RMK AO2 SNE50 SLP215 P0001 60001 70006 T10281056 11022 21033 51024
Loading
Personal Weather Stations






























Interactive Weather Map New forecast layout! Learn more

10-Day Weather Forecast

Advertisements
Track Severe Weather on mobile